createdAt,value
2023-03-26T00:02:17.089Z,99338.78
2023-03-26T00:04:46.637Z,99325.59
2023-03-26T00:07:16.200Z,99333.34
2023-03-26T00:09:47.004Z,99329.72
2023-03-26T00:12:16.493Z,99335.91
2023-03-26T00:14:45.575Z,99333.47
2023-03-26T00:17:14.574Z,99331.59
2023-03-26T00:19:44.246Z,99329.47
2023-03-26T00:22:14.356Z,99331.34
2023-03-26T00:24:46.021Z,99325.84
2023-03-26T00:27:16.479Z,99325.53
2023-03-26T00:29:48.310Z,99329.28
2023-03-26T00:32:17.962Z,99323.06
2023-03-26T00:34:47.838Z,99320.53
2023-03-26T00:37:16.869Z,99314.13
2023-03-26T00:39:49.179Z,99310.31
2023-03-26T00:42:20.082Z,99314.78
2023-03-26T00:44:51.237Z,99315.69
2023-03-26T00:47:20.418Z,99309.53
2023-03-26T00:49:50.791Z,99303.56
2023-03-26T00:52:20.126Z,99300.53
2023-03-26T00:54:49.701Z,99305.13
2023-03-26T00:57:34.490Z,99304.13
2023-03-26T01:00:16.580Z,99300.28
2023-03-26T01:02:46.409Z,99291.63
2023-03-26T01:05:58.710Z,99292.63
2023-03-26T01:08:32.456Z,99293.31
2023-03-26T01:11:14.248Z,99293.31
2023-03-26T01:13:50.914Z,99296.38
2023-03-26T01:16:27.310Z,99292.25
2023-03-26T01:18:58.812Z,99290.19
2023-03-26T01:21:30.547Z,99286.44
2023-03-26T01:24:02.714Z,99291.22
2023-03-26T01:26:57.395Z,99286.94
2023-03-26T01:29:34.669Z,99284.28
2023-03-26T01:32:21.955Z,99283.63
2023-03-26T01:35:07.234Z,99280.28
2023-03-26T01:37:46.879Z,99276.75
2023-03-26T01:40:26.504Z,99269.56
2023-03-26T01:43:05.087Z,99270.25
2023-03-26T01:45:37.876Z,99272.13
2023-03-26T01:48:08.296Z,99273.06
2023-03-26T01:50:37.550Z,99267.69
2023-03-26T01:53:08.970Z,99262.81
2023-03-26T01:55:49.824Z,99261.09
2023-03-26T01:58:27.970Z,99260.22
2023-03-26T02:01:07.391Z,99248.59
2023-03-26T02:03:43.171Z,99241.72
2023-03-26T02:06:17.693Z,99241.06
2023-03-26T02:08:53.977Z,99249.13
2023-03-26T02:11:34.640Z,99246.59
2023-03-26T02:14:06.515Z,99244.81
2023-03-26T02:16:36.166Z,99247.47
2023-03-26T02:19:10.039Z,99243.91
2023-03-26T02:21:39.413Z,99240.28
2023-03-26T02:24:09.464Z,99249.22
2023-03-26T02:26:40.878Z,99242.94
2023-03-26T02:29:14.642Z,99243.72
2023-03-26T02:31:47.386Z,99236.72
2023-03-26T02:34:17.132Z,99236.53
2023-03-26T02:36:54.734Z,99241.53
2023-03-26T02:39:24.096Z,99240.16
2023-03-26T02:42:05.696Z,99234.66
2023-03-26T02:44:41.317Z,99229.53
2023-03-26T02:47:33.818Z,99233.53
2023-03-26T02:50:22.117Z,99219.28
2023-03-26T02:53:10.143Z,99225.78
2023-03-26T02:55:42.901Z,99228.44
2023-03-26T02:58:17.562Z,99219.38
2023-03-26T03:00:47.360Z,99221.00
2023-03-26T03:03:42.943Z,99203.88
2023-03-26T03:06:41.786Z,99213.81
2023-03-26T03:09:11.103Z,99216.72
2023-03-26T03:11:41.950Z,99209.97
2023-03-26T03:14:13.732Z,99215.22
2023-03-26T03:16:44.104Z,99206.41
2023-03-26T03:19:14.503Z,99212.50
2023-03-26T03:21:44.291Z,99209.06
2023-03-26T03:24:14.039Z,99201.00
2023-03-26T03:26:47.953Z,99203.75
2023-03-26T03:29:36.616Z,99203.47
2023-03-26T03:32:34.829Z,99212.28
2023-03-26T03:35:07.702Z,99203.44
2023-03-26T03:37:37.532Z,99214.38
2023-03-26T03:40:11.086Z,99213.56
2023-03-26T03:42:42.712Z,99211.88
2023-03-26T03:45:15.555Z,99207.56
2023-03-26T03:48:00.762Z,99202.25
2023-03-26T03:50:38.432Z,99203.97
2023-03-26T03:53:28.953Z,99203.09
2023-03-26T03:56:02.270Z,99200.44
2023-03-26T03:59:08.902Z,99203.09
2023-03-26T04:01:43.386Z,99199.44
2023-03-26T04:04:22.212Z,99206.53
2023-03-26T04:07:01.458Z,99194.19
2023-03-26T04:09:54.273Z,99195.91
2023-03-26T04:12:25.498Z,99197.56
2023-03-26T04:15:05.958Z,99190.44
2023-03-26T04:17:42.955Z,99200.91
2023-03-26T04:20:15.976Z,99199.56
2023-03-26T04:22:48.246Z,99195.25
2023-03-26T04:25:19.674Z,99193.63
2023-03-26T04:28:08.564Z,99197.16
2023-03-26T04:31:00.753Z,99197.00
2023-03-26T04:33:41.976Z,99189.81
2023-03-26T04:36:12.658Z,99188.84
2023-03-26T04:38:44.724Z,99179.16
2023-03-26T04:41:16.847Z,99183.53
2023-03-26T04:43:50.758Z,99181.63
2023-03-26T04:46:43.713Z,99181.63
2023-03-26T04:49:26.966Z,99186.03
2023-03-26T04:51:56.836Z,99177.09
2023-03-26T04:55:01.922Z,99169.13
2023-03-26T04:57:38.880Z,99165.44
2023-03-26T05:00:16.690Z,99167.00
2023-03-26T05:02:50.860Z,99169.75
2023-03-26T05:05:22.991Z,99167.88
2023-03-26T05:07:53.371Z,99165.28
2023-03-26T05:10:24.494Z,99167.72
2023-03-26T05:12:59.503Z,99170.97
2023-03-26T05:15:32.858Z,99172.72
2023-03-26T05:18:20.925Z,99172.53
2023-03-26T05:20:56.242Z,99169.19
2023-03-26T05:23:26.167Z,99177.16
2023-03-26T05:26:12.077Z,99176.16
2023-03-26T05:28:41.602Z,99180.59
2023-03-26T05:31:33.561Z,99182.53
2023-03-26T05:34:04.822Z,99175.47
2023-03-26T05:36:35.598Z,99180.41
2023-03-26T05:39:26.241Z,99184.09
2023-03-26T05:41:55.654Z,99181.22
2023-03-26T05:44:31.901Z,99182.97
2023-03-26T05:47:05.133Z,99182.53
2023-03-26T05:49:34.519Z,99179.09
2023-03-26T05:52:05.132Z,99179.16
2023-03-26T05:54:44.249Z,99183.78
2023-03-26T05:57:39.349Z,99179.94
2023-03-26T06:00:27.609Z,99180.78
2023-03-26T06:02:58.973Z,99183.47
2023-03-26T06:05:57.552Z,99191.97
2023-03-26T06:09:01.623Z,99182.72
2023-03-26T06:11:33.991Z,99180.41
2023-03-26T06:14:05.721Z,99192.44
2023-03-26T06:16:37.846Z,99185.03
2023-03-26T06:19:22.680Z,99185.13
2023-03-26T06:21:59.959Z,99186.50
2023-03-26T06:24:36.745Z,99184.16
2023-03-26T06:27:44.433Z,99188.84
2023-03-26T06:30:46.827Z,99189.56
2023-03-26T06:33:24.755Z,99189.22
2023-03-26T06:35:54.506Z,99185.88
2023-03-26T06:38:23.818Z,99198.75
2023-03-26T06:40:54.915Z,99197.72
2023-03-26T06:43:42.482Z,99202.63
2023-03-26T06:46:15.060Z,99199.78
2023-03-26T06:49:03.188Z,99197.53
2023-03-26T06:52:03.119Z,99189.13
2023-03-26T06:54:51.775Z,99194.47
2023-03-26T06:57:49.451Z,99197.38
2023-03-26T07:00:42.381Z,99195.22
2023-03-26T07:03:30.820Z,99198.66
2023-03-26T07:06:18.843Z,99200.06
2023-03-26T07:09:07.084Z,99195.16
2023-03-26T07:11:55.507Z,99197.47
2023-03-26T07:14:44.564Z,99203.25
2023-03-26T07:17:46.919Z,99205.81
2023-03-26T07:20:27.576Z,99202.22
2023-03-26T07:22:57.967Z,99208.41
2023-03-26T07:25:55.571Z,99209.84
2023-03-26T07:29:03.709Z,99214.22
2023-03-26T07:32:24.560Z,99207.09
2023-03-26T07:35:20.399Z,99214.22
2023-03-26T07:38:29.085Z,99217.69
2023-03-26T07:41:27.386Z,99217.50
2023-03-26T07:44:47.112Z,99218.16
2023-03-26T07:47:28.966Z,99213.81
2023-03-26T07:50:27.961Z,99213.34
2023-03-26T07:53:27.029Z,99220.41
2023-03-26T07:56:13.679Z,99218.88
2023-03-26T07:59:22.882Z,99222.31
2023-03-26T08:02:53.684Z,99228.22
2023-03-26T08:05:50.496Z,99229.03
2023-03-26T08:08:43.468Z,99218.63
2023-03-26T08:11:41.762Z,99223.19
2023-03-26T08:14:26.242Z,99217.66
2023-03-26T08:16:59.862Z,99229.09
2023-03-26T08:19:46.900Z,99231.41
2023-03-26T08:22:26.385Z,99236.22
2023-03-26T08:25:18.105Z,99234.31
2023-03-26T08:27:58.157Z,99227.78
2023-03-26T08:30:29.042Z,99237.75
2023-03-26T08:33:01.776Z,99243.66
2023-03-26T08:35:33.961Z,99234.81
2023-03-26T08:38:04.694Z,99249.78
2023-03-26T08:41:17.192Z,99235.81
2023-03-26T08:44:16.447Z,99235.47
2023-03-26T08:46:58.642Z,99236.03
2023-03-26T08:50:04.461Z,99239.41
2023-03-26T08:53:09.850Z,99246.25
2023-03-26T08:55:53.717Z,99236.16
2023-03-26T08:58:58.548Z,99238.66
2023-03-26T09:01:55.739Z,99239.81
2023-03-26T09:04:56.882Z,99236.88
2023-03-26T09:08:17.614Z,99237.38
2023-03-26T09:11:27.858Z,99235.47
2023-03-26T09:14:28.031Z,99239.22
2023-03-26T09:17:28.892Z,99230.72
2023-03-26T09:20:48.431Z,99238.44
2023-03-26T09:23:49.781Z,99233.75
2023-03-26T09:26:31.077Z,99237.72
2023-03-26T09:29:45.188Z,99238.19
2023-03-26T09:32:44.004Z,99236.97
2023-03-26T09:35:32.507Z,99242.56
2023-03-26T09:38:11.294Z,99248.50
2023-03-26T09:40:53.298Z,99243.91
2023-03-26T09:43:44.187Z,99243.91
2023-03-26T09:46:28.732Z,99245.63
2023-03-26T09:49:21.036Z,99246.09
2023-03-26T09:52:14.470Z,99245.16
2023-03-26T09:55:15.524Z,99251.16
2023-03-26T09:58:02.490Z,99259.16
2023-03-26T10:00:43.151Z,99266.81
2023-03-26T10:03:30.729Z,99266.59
2023-03-26T10:06:18.582Z,99265.28
2023-03-26T10:08:59.294Z,99267.56
2023-03-26T10:11:38.690Z,99267.94
2023-03-26T10:14:20.260Z,99273.00
2023-03-26T10:17:05.104Z,99269.47
2023-03-26T10:19:54.906Z,99270.44
2023-03-26T10:22:43.653Z,99265.75
2023-03-26T10:25:34.871Z,99262.03
2023-03-26T10:28:26.497Z,99269.47
2023-03-26T10:31:18.116Z,99262.22
2023-03-26T10:33:59.119Z,99269.47
2023-03-26T10:36:35.830Z,99268.25
2023-03-26T10:39:38.142Z,99260.72
2023-03-26T10:42:26.825Z,99270.25
2023-03-26T10:45:26.041Z,99275.03
2023-03-26T10:48:23.426Z,99264.31
2023-03-26T10:51:15.536Z,99269.66
2023-03-26T10:53:50.452Z,99260.56
2023-03-26T10:56:26.640Z,99258.00
2023-03-26T10:58:58.024Z,99256.97
2023-03-26T11:01:37.303Z,99262.88
2023-03-26T11:04:19.308Z,99268.66
2023-03-26T11:07:00.842Z,99274.88
2023-03-26T11:09:41.952Z,99261.22
2023-03-26T11:12:26.759Z,99269.06
2023-03-26T11:15:16.322Z,99279.84
2023-03-26T11:17:56.190Z,99274.69
2023-03-26T11:20:37.310Z,99279.00
2023-03-26T11:23:34.757Z,99281.84
2023-03-26T11:26:13.185Z,99274.88
2023-03-26T11:29:03.925Z,99282.34
2023-03-26T11:32:02.060Z,99282.34
2023-03-26T11:34:37.191Z,99290.66
2023-03-26T11:37:15.438Z,99289.13
2023-03-26T11:39:50.993Z,99290.84
2023-03-26T11:42:24.572Z,99296.06
2023-03-26T11:44:57.680Z,99300.31
2023-03-26T11:47:38.401Z,99287.78
2023-03-26T11:50:11.981Z,99295.41
2023-03-26T11:52:42.294Z,99287.31
2023-03-26T11:55:15.908Z,99286.44
2023-03-26T11:57:56.447Z,99291.59
2023-03-26T12:00:28.180Z,99290.75
2023-03-26T12:03:01.700Z,99287.97
2023-03-26T12:05:50.239Z,99293.31
2023-03-26T12:08:29.954Z,99285.66
2023-03-26T12:11:08.947Z,99286.13
2023-03-26T12:13:44.272Z,99288.50
2023-03-26T12:16:17.273Z,99284.00
2023-03-26T12:18:58.244Z,99286.56
2023-03-26T12:21:28.082Z,99296.97
2023-03-26T12:24:03.529Z,99292.50
2023-03-26T12:26:42.483Z,99303.72
2023-03-26T12:29:14.332Z,99291.22
2023-03-26T12:31:52.313Z,99302.69
2023-03-26T12:34:23.807Z,99305.66
2023-03-26T12:36:55.750Z,99306.28
2023-03-26T12:40:08.734Z,99319.47
2023-03-26T12:44:46.700Z,99310.41
2023-03-26T12:45:30.400Z,99307.19
2023-03-26T12:48:04.241Z,99311.84
2023-03-26T12:50:53.079Z,99297.53
2023-03-26T12:53:50.829Z,99305.16
2023-03-26T12:56:36.589Z,99307.25
2023-03-26T12:59:29.893Z,99310.31
2023-03-26T13:02:13.792Z,99322.13
2023-03-26T13:05:05.652Z,99322.53
2023-03-26T13:08:14.894Z,99329.59
2023-03-26T13:10:51.615Z,99338.56
2023-03-26T13:13:39.365Z,99340.75
2023-03-26T13:16:17.885Z,99346.66
2023-03-26T13:18:54.517Z,99339.41
2023-03-26T13:21:35.985Z,99340.94
2023-03-26T13:24:22.480Z,99334.56
2023-03-26T13:27:09.189Z,99335.91
2023-03-26T13:29:48.005Z,99336.66
2023-03-26T13:32:30.919Z,99354.13
2023-03-26T13:35:16.299Z,99336.66
2023-03-26T13:37:56.756Z,99346.38
2023-03-26T13:40:36.678Z,99347.34
2023-03-26T13:43:19.324Z,99344.84
2023-03-26T13:45:58.355Z,99336.63
2023-03-26T13:48:33.557Z,99339.88
2023-03-26T13:51:11.153Z,99342.44
2023-03-26T13:53:48.869Z,99341.59
2023-03-26T13:56:21.850Z,99337.97
2023-03-26T13:58:56.656Z,99345.22
2023-03-26T14:01:35.151Z,99340.53
2023-03-26T14:04:16.102Z,99334.50
2023-03-26T14:06:54.263Z,99341.53
2023-03-26T14:09:30.485Z,99336.03
2023-03-26T14:12:22.150Z,99338.53
2023-03-26T14:14:56.469Z,99338.91
2023-03-26T14:17:31.382Z,99338.38
2023-03-26T14:20:49.490Z,99332.78
2023-03-26T14:23:40.589Z,99331.47
2023-03-26T14:26:21.711Z,99335.03
2023-03-26T14:29:11.567Z,99324.31
2023-03-26T14:31:50.997Z,99325.84
2023-03-26T14:34:45.339Z,99321.41
2023-03-26T14:37:46.911Z,99327.28
2023-03-26T14:40:53.131Z,99321.66
2023-03-26T14:43:51.267Z,99322.31
2023-03-26T14:46:38.881Z,99326.09
2023-03-26T14:49:46.838Z,99331.47
2023-03-26T14:52:23.740Z,99325.84
2023-03-26T14:54:58.093Z,99321.69
2023-03-26T14:58:04.034Z,99324.59
2023-03-26T15:01:18.001Z,99333.19
2023-03-26T15:04:38.770Z,99337.00
2023-03-26T15:07:42.772Z,99337.31
2023-03-26T15:10:49.997Z,99340.25
2023-03-26T15:13:55.238Z,99337.50
2023-03-26T15:16:54.681Z,99342.66
2023-03-26T15:20:11.705Z,99347.59
2023-03-26T15:23:33.122Z,99343.53
2023-03-26T15:26:37.124Z,99345.91
2023-03-26T15:29:35.652Z,99346.31
2023-03-26T15:32:49.470Z,99350.63
2023-03-26T15:35:41.331Z,99350.66
2023-03-26T15:38:43.649Z,99353.78
2023-03-26T15:41:28.494Z,99354.66
2023-03-26T15:44:40.977Z,99352.34
2023-03-26T15:47:38.313Z,99355.41
2023-03-26T15:50:26.131Z,99364.03
2023-03-26T15:53:07.270Z,99366.34
2023-03-26T15:55:45.920Z,99385.25
2023-03-26T15:58:28.059Z,99372.75
2023-03-26T16:01:19.042Z,99382.84
2023-03-26T16:03:59.856Z,99378.44
2023-03-26T16:06:41.382Z,99397.09
2023-03-26T16:09:39.121Z,99395.84
2023-03-26T16:12:29.594Z,99391.75
2023-03-26T16:15:32.619Z,99402.38
2023-03-26T16:18:30.793Z,99409.06
2023-03-26T16:21:41.198Z,99425.91
2023-03-26T16:24:24.926Z,99426.91
2023-03-26T16:27:24.632Z,99428.06
2023-03-26T16:30:26.076Z,99431.19
2023-03-26T16:32:59.541Z,99436.16
2023-03-26T16:36:07.557Z,99429.56
2023-03-26T16:38:55.622Z,99432.22
2023-03-26T16:41:28.193Z,99417.00
2023-03-26T16:44:22.617Z,99429.06
2023-03-26T16:47:01.445Z,99430.47
2023-03-26T16:49:45.952Z,99434.53
2023-03-26T16:52:34.387Z,99449.22
2023-03-26T16:55:15.611Z,99444.19
2023-03-26T16:57:53.696Z,99437.53
2023-03-26T17:00:32.655Z,99443.56
2023-03-26T17:03:37.666Z,99453.69
2023-03-26T17:06:21.095Z,99451.28
2023-03-26T17:09:02.836Z,99458.13
2023-03-26T17:11:47.038Z,99467.09
2023-03-26T17:14:31.212Z,99469.03
2023-03-26T17:17:23.352Z,99472.94
2023-03-26T17:20:01.406Z,99482.19
2023-03-26T17:22:50.745Z,99468.59
2023-03-26T17:25:37.304Z,99473.44
2023-03-26T17:28:29.828Z,99477.53
2023-03-26T17:31:06.712Z,99483.06
2023-03-26T17:33:39.766Z,99480.66
2023-03-26T17:36:41.625Z,99486.47
2023-03-26T17:39:38.623Z,99492.50
2023-03-26T17:42:27.105Z,99490.22
2023-03-26T17:44:59.507Z,99494.09
2023-03-26T17:47:36.186Z,99500.63
2023-03-26T17:50:18.905Z,99503.47
2023-03-26T17:52:57.725Z,99500.13
2023-03-26T17:55:32.392Z,99506.75
2023-03-26T17:58:08.206Z,99506.16
2023-03-26T18:00:48.026Z,99510.22
2023-03-26T18:03:49.544Z,99514.03
2023-03-26T18:06:46.266Z,99508.09
2023-03-26T18:09:33.075Z,99511.75
2023-03-26T18:12:30.135Z,99516.31
2023-03-26T18:15:25.626Z,99506.13
2023-03-26T18:18:11.143Z,99504.81
2023-03-26T18:21:08.167Z,99511.25
2023-03-26T18:23:45.261Z,99504.44
2023-03-26T18:26:21.683Z,99514.19
2023-03-26T18:29:13.040Z,99505.66
2023-03-26T18:31:47.337Z,99519.84
2023-03-26T18:34:21.450Z,99515.81
2023-03-26T18:37:11.039Z,99510.75
2023-03-26T18:39:45.030Z,99502.75
2023-03-26T18:42:23.324Z,99512.66
2023-03-26T18:44:59.858Z,99506.59
2023-03-26T18:47:38.497Z,99503.34
2023-03-26T18:50:21.266Z,99503.34
2023-03-26T18:52:53.414Z,99501.59
2023-03-26T18:55:29.483Z,99491.88
2023-03-26T18:58:23.721Z,99499.97
2023-03-26T19:01:04.200Z,99499.09
2023-03-26T19:03:40.895Z,99495.56
2023-03-26T19:06:17.370Z,99496.41
2023-03-26T19:08:48.606Z,99490.59
2023-03-26T19:11:24.393Z,99490.47
2023-03-26T19:14:16.904Z,99491.59
2023-03-26T19:16:58.625Z,99486.63
2023-03-26T19:19:36.873Z,99484.06
2023-03-26T19:22:13.830Z,99484.06
2023-03-26T19:24:46.783Z,99480.53
2023-03-26T19:27:22.070Z,99477.94
2023-03-26T19:29:54.259Z,99476.91
2023-03-26T19:32:32.891Z,99480.47
2023-03-26T19:35:21.245Z,99485.09
2023-03-26T19:37:54.353Z,99482.47
2023-03-26T19:40:30.151Z,99484.41
2023-03-26T19:43:04.525Z,99480.66
2023-03-26T19:45:38.715Z,99478.25
2023-03-26T19:48:45.506Z,99479.28
2023-03-26T19:51:32.312Z,99481.13
2023-03-26T19:54:14.562Z,99471.56
2023-03-26T19:56:44.505Z,99481.19
2023-03-26T19:59:16.076Z,99481.19
2023-03-26T20:01:45.808Z,99481.28
2023-03-26T20:04:16.918Z,99473.41
2023-03-26T20:06:52.794Z,99467.19
2023-03-26T20:09:25.581Z,99470.63
2023-03-26T20:11:57.418Z,99474.09
2023-03-26T20:14:27.837Z,99467.03
2023-03-26T20:16:57.797Z,99455.47
2023-03-26T20:19:33.867Z,99456.28
2023-03-26T20:22:07.997Z,99461.50
2023-03-26T20:24:41.740Z,99456.19
2023-03-26T20:27:14.253Z,99457.09
2023-03-26T20:29:46.812Z,99450.19
2023-03-26T20:32:26.482Z,99443.06
2023-03-26T20:34:57.778Z,99449.28
2023-03-26T20:37:31.537Z,99444.00
2023-03-26T20:40:01.918Z,99444.16
2023-03-26T20:42:56.852Z,99446.81
2023-03-26T20:45:26.316Z,99447.91
2023-03-26T20:47:55.822Z,99445.44
2023-03-26T20:50:28.873Z,99442.03
2023-03-26T20:53:02.476Z,99449.09
2023-03-26T20:55:32.188Z,99450.06
2023-03-26T20:58:01.312Z,99436.03
2023-03-26T21:00:32.651Z,99445.72
2023-03-26T21:03:02.223Z,99442.25
2023-03-26T21:05:32.334Z,99447.56
2023-03-26T21:08:02.925Z,99436.25
2023-03-26T21:10:35.811Z,99438.13
2023-03-26T21:13:09.656Z,99441.81
2023-03-26T21:15:39.758Z,99442.69
2023-03-26T21:18:09.734Z,99448.88
2023-03-26T21:20:40.887Z,99439.31
2023-03-26T21:23:21.005Z,99446.44
2023-03-26T21:26:01.570Z,99435.06
2023-03-26T21:28:42.025Z,99446.56
2023-03-26T21:31:18.544Z,99445.75
2023-03-26T21:33:49.844Z,99444.03
2023-03-26T21:36:21.058Z,99437.91
2023-03-26T21:38:54.710Z,99443.19
2023-03-26T21:41:36.198Z,99440.56
2023-03-26T21:44:05.534Z,99445.03
2023-03-26T21:46:35.569Z,99443.31
2023-03-26T21:49:04.810Z,99445.84
2023-03-26T21:51:34.849Z,99447.69
2023-03-26T21:54:07.056Z,99444.16
2023-03-26T21:56:49.944Z,99445.97
2023-03-26T21:59:27.625Z,99439.69
2023-03-26T22:02:03.386Z,99454.59
2023-03-26T22:04:40.367Z,99448.41
2023-03-26T22:07:14.763Z,99454.44
2023-03-26T22:09:46.344Z,99451.81
2023-03-26T22:12:16.863Z,99458.78
2023-03-26T22:14:46.213Z,99465.69
2023-03-26T22:17:15.513Z,99462.09
2023-03-26T22:19:44.666Z,99459.47
2023-03-26T22:22:14.946Z,99466.50
2023-03-26T22:24:45.479Z,99458.06
2023-03-26T22:27:16.117Z,99464.69
2023-03-26T22:29:45.466Z,99463.03
2023-03-26T22:32:15.033Z,99477.16
2023-03-26T22:34:45.006Z,99467.91
2023-03-26T22:37:14.531Z,99472.06
2023-03-26T22:39:45.827Z,99471.13
2023-03-26T22:42:15.959Z,99481.63
2023-03-26T22:44:44.839Z,99479.78
2023-03-26T22:47:16.672Z,99485.09
2023-03-26T22:49:46.571Z,99487.00
2023-03-26T22:52:16.059Z,99491.13
2023-03-26T22:54:46.471Z,99491.06
2023-03-26T22:57:16.087Z,99489.22
2023-03-26T22:59:45.294Z,99492.66
2023-03-26T23:02:16.582Z,99483.91
2023-03-26T23:04:46.327Z,99490.03
2023-03-26T23:07:15.470Z,99488.31
2023-03-26T23:09:46.034Z,99480.44
2023-03-26T23:12:15.701Z,99493.75
2023-03-26T23:14:44.777Z,99486.78
2023-03-26T23:17:14.758Z,99483.34
2023-03-26T23:19:44.615Z,99486.03
2023-03-26T23:22:14.224Z,99481.50
2023-03-26T23:24:43.574Z,99496.34
2023-03-26T23:27:14.415Z,99482.44
2023-03-26T23:29:45.877Z,99483.34
2023-03-26T23:32:24.483Z,99488.22
2023-03-26T23:34:55.793Z,99490.69
2023-03-26T23:37:25.339Z,99495.06
2023-03-26T23:39:54.500Z,99498.03
2023-03-26T23:42:29.122Z,99495.44
2023-03-26T23:44:58.964Z,99499.50
2023-03-26T23:47:34.553Z,99500.94
2023-03-26T23:50:05.667Z,99505.44
2023-03-26T23:52:35.074Z,99509.84
2023-03-26T23:55:04.269Z,99514.31
2023-03-26T23:57:37.196Z,99511.81
